Time;durP1;ratioP1;P1;durP2;ratioP2;P2;SDS_P1;SDS_P2;PMS_P1;PMS_P2;Temp;Humidity;BMP_temperature;BMP_pressure;BME280_temperature;BME280_humidity;BME280_pressure;Samples;Min_cycle;Max_cycle;Signal;HPM_P1;HPM_P2
2022/07/10 00:01:43;;;;;;;5.05;1.75;;;;;;;17.99;66.41;99348.50;4114428;28;20297;-59
2022/07/10 00:03:45;;;;;;;2.20;1.58;;;;;;;17.93;65.71;99344.06;4116728;28;20237;-59
2022/07/10 00:05:46;;;;;;;1.92;1.35;;;;;;;17.90;65.61;99344.59;4117077;28;20778;-58
2022/07/10 00:07:48;;;;;;;1.77;1.10;;;;;;;17.86;65.56;99344.31;4119526;28;20230;-58
2022/07/10 00:09:50;;;;;;;2.08;1.20;;;;;;;17.87;65.26;99339.63;4117277;28;21363;-58
2022/07/10 00:11:52;;;;;;;1.98;1.50;;;;;;;17.82;64.97;99337.69;4117107;28;20542;-59
2022/07/10 00:13:53;;;;;;;2.85;1.35;;;;;;;17.78;65.06;99336.56;4119997;28;21176;-60
2022/07/10 00:15:55;;;;;;;2.55;1.52;;;;;;;17.77;64.59;99345.16;4118188;28;20297;-59
2022/07/10 00:17:56;;;;;;;3.17;1.30;;;;;;;17.64;64.42;99342.97;4113055;28;20230;-59
2022/07/10 00:19:58;;;;;;;2.28;1.42;;;;;;;17.70;64.84;99339.91;4113166;28;20930;-59
2022/07/10 00:22:00;;;;;;;1.45;1.20;;;;;;;17.60;64.90;99344.59;4148285;28;20222;-59
2022/07/10 00:24:01;;;;;;;2.03;1.00;;;;;;;17.62;64.51;99342.38;4117352;28;20503;-60
2022/07/10 00:26:03;;;;;;;2.10;1.30;;;;;;;17.56;64.43;99337.94;4116856;28;20317;-58
2022/07/10 00:28:04;;;;;;;1.50;0.80;;;;;;;17.56;64.56;99343.47;4119840;28;20269;-58
2022/07/10 00:30:07;;;;;;;3.67;1.40;;;;;;;17.51;64.73;99349.84;4115171;28;20206;-59
2022/07/10 00:32:09;;;;;;;3.00;1.00;;;;;;;17.38;64.84;99342.06;4117854;28;20301;-57
2022/07/10 00:34:11;;;;;;;2.65;1.10;;;;;;;17.49;64.91;99351.22;4114444;28;20233;-59
2022/07/10 00:36:13;;;;;;;2.70;1.08;;;;;;;17.31;65.03;99348.97;4117257;28;20245;-59
2022/07/10 00:38:14;;;;;;;1.85;0.90;;;;;;;17.44;64.91;99340.16;4113816;28;20313;-60
2022/07/10 00:40:16;;;;;;;1.20;1.08;;;;;;;17.42;64.87;99348.72;4114466;28;20295;-59
2022/07/10 00:42:18;;;;;;;1.75;1.00;;;;;;;17.22;65.11;99353.34;4116277;28;20338;-59
2022/07/10 00:44:19;;;;;;;2.08;0.85;;;;;;;17.33;65.13;99353.09;4114611;28;20293;-60
2022/07/10 00:46:21;;;;;;;2.38;1.42;;;;;;;17.15;65.18;99355.53;4113687;28;20232;-59
2022/07/10 00:48:23;;;;;;;2.15;1.08;;;;;;;17.36;65.04;99346.19;4118206;28;20292;-60
2022/07/10 00:50:24;;;;;;;3.03;1.23;;;;;;;17.40;64.82;99355.66;4115441;28;20300;-59
2022/07/10 00:52:26;;;;;;;2.60;1.00;;;;;;;17.38;64.63;99358.69;4114681;28;20208;-59
2022/07/10 00:54:32;;;;;;;2.38;1.08;;;;;;;17.39;64.80;99349.25;4146513;28;20205;-59
2022/07/10 00:56:33;;;;;;;1.50;0.80;;;;;;;17.30;64.87;99350.88;4117647;28;20632;-59
2022/07/10 00:58:35;;;;;;;4.85;1.08;;;;;;;17.34;65.05;99351.16;4112463;28;20252;-59
2022/07/10 01:00:37;;;;;;;1.67;1.10;;;;;;;17.44;64.83;99337.41;4111936;28;20261;-60
2022/07/10 01:02:42;;;;;;;5.07;1.00;;;;;;;17.31;64.92;99346.19;4146981;28;20208;-59
2022/07/10 01:04:43;;;;;;;2.63;0.88;;;;;;;17.21;65.32;99346.16;4116142;28;20211;-59
2022/07/10 01:06:45;;;;;;;2.75;1.10;;;;;;;17.11;65.55;99346.13;4115275;28;20324;-59
2022/07/10 01:08:47;;;;;;;1.77;1.02;;;;;;;17.04;65.76;99348.28;4116275;28;20316;-59
2022/07/10 01:10:49;;;;;;;4.55;1.20;;;;;;;17.02;65.77;99343.06;4119965;28;20234;-59
2022/07/10 01:12:51;;;;;;;6.30;0.93;;;;;;;17.01;65.97;99351.63;4112109;28;20571;-60
2022/07/10 01:14:53;;;;;;;3.63;1.25;;;;;;;17.11;65.57;99351.66;4112220;28;20237;-60
2022/07/10 01:16:55;;;;;;;2.13;0.90;;;;;;;16.96;65.94;99343.28;4147990;28;20208;-59
2022/07/10 01:18:57;;;;;;;2.58;1.10;;;;;;;17.05;65.64;99347.22;4113678;28;20207;-59
2022/07/10 01:20:59;;;;;;;1.73;1.08;;;;;;;16.95;66.00;99352.69;4147328;28;20200;-61
2022/07/10 01:23:01;;;;;;;1.90;0.93;;;;;;;16.85;66.15;99347.13;4115413;28;20297;-58
2022/07/10 01:25:03;;;;;;;4.00;1.27;;;;;;;16.78;66.44;99357.63;4112579;28;20301;-59
2022/07/10 01:27:05;;;;;;;2.10;1.30;;;;;;;16.56;66.93;99356.13;4113962;28;20377;-58
2022/07/10 01:29:07;;;;;;;3.20;1.10;;;;;;;16.68;66.56;99354.78;4110700;28;20241;-59
2022/07/10 01:31:08;;;;;;;4.63;1.30;;;;;;;16.76;66.35;99359.00;4116637;28;20202;-58
2022/07/10 01:33:10;;;;;;;2.47;1.05;;;;;;;16.64;66.62;99359.19;4144976;28;20252;-59
2022/07/10 01:35:11;;;;;;;3.92;1.13;;;;;;;16.60;66.61;99355.31;4114843;28;20241;-58
2022/07/10 01:37:13;;;;;;;3.95;1.35;;;;;;;16.63;66.56;99359.47;4118173;28;20226;-59
2022/07/10 01:39:15;;;;;;;4.30;1.20;;;;;;;16.64;66.40;99359.19;4145365;28;20205;-58
2022/07/10 01:41:16;;;;;;;1.55;1.20;;;;;;;16.65;66.38;99368.31;4113128;28;20207;-59
2022/07/10 01:43:18;;;;;;;1.73;1.00;;;;;;;16.68;66.15;99363.09;4112119;28;20213;-59
2022/07/10 01:45:20;;;;;;;5.60;1.20;;;;;;;16.63;66.24;99371.34;4115908;28;20664;-58
2022/07/10 01:47:25;;;;;;;7.60;1.30;;;;;;;16.63;66.28;99365.81;4113356;28;20229;-60
2022/07/10 01:49:27;;;;;;;2.08;1.20;;;;;;;16.62;66.16;99369.69;4115622;28;20214;-59
2022/07/10 01:54:44;;;;;;;2.78;1.10;;;;;;;16.70;65.80;99366.41;4111257;28;20309;-59
2022/07/10 01:56:46;;;;;;;4.07;1.42;;;;;;;16.62;65.96;99360.56;4146052;28;20205;-59
2022/07/10 01:58:47;;;;;;;1.77;1.05;;;;;;;16.60;66.13;99371.88;4117837;28;20256;-58
2022/07/10 02:00:49;;;;;;;2.20;1.10;;;;;;;16.63;65.90;99376.88;4117134;28;20210;-59
2022/07/10 02:05:10;;;;;;;1.80;1.13;;;;;;;16.58;66.03;99379.63;4109981;28;20229;-58
2022/07/10 02:07:13;;;;;;;2.72;0.80;;;;;;;16.68;66.05;99376.91;4120785;28;20714;-58
2022/07/10 02:09:15;;;;;;;1.27;1.17;;;;;;;16.65;66.06;99379.38;4118854;28;20660;-58
2022/07/10 02:11:17;;;;;;;2.30;0.80;;;;;;;16.59;66.33;99381.28;4119364;28;20210;-57
2022/07/10 02:13:20;;;;;;;1.25;0.98;;;;;;;16.60;66.19;99377.41;4118589;28;20217;-58
2022/07/10 02:15:21;;;;;;;1.65;1.17;;;;;;;16.35;66.73;99379.97;4120101;28;20750;-58
2022/07/10 02:17:23;;;;;;;2.50;1.35;;;;;;;16.25;67.12;99371.66;4118054;28;20269;-58
2022/07/10 02:19:24;;;;;;;2.42;1.10;;;;;;;16.29;66.97;99374.72;4122327;28;20206;-58
2022/07/10 02:21:26;;;;;;;5.82;1.38;;;;;;;16.35;66.67;99379.97;4117408;28;20206;-57
2022/07/10 02:23:28;;;;;;;2.33;1.58;;;;;;;16.43;66.63;99373.16;4115864;28;20305;-58
2022/07/10 02:25:29;;;;;;;3.42;1.20;;;;;;;16.43;66.42;99375.94;4116749;28;20668;-58
2022/07/10 02:27:31;;;;;;;3.55;1.30;;;;;;;16.48;66.28;99387.84;4145578;28;20236;-58
2022/07/10 02:29:32;;;;;;;9.43;1.10;;;;;;;16.42;66.58;99383.38;4113532;28;20206;-58
2022/07/10 02:31:36;;;;;;;2.15;1.02;;;;;;;16.45;66.50;99374.56;4144127;28;20201;-59
2022/07/10 02:33:38;;;;;;;2.25;1.02;;;;;;;16.22;66.94;99366.63;4115423;28;20207;-58
2022/07/10 02:35:39;;;;;;;2.17;1.15;;;;;;;16.22;66.77;99369.41;4117328;28;21581;-58
2022/07/10 02:37:41;;;;;;;3.40;1.05;;;;;;;16.19;66.94;99369.09;4113201;28;20230;-59
2022/07/10 02:39:42;;;;;;;4.85;1.15;;;;;;;16.22;66.91;99369.41;4114726;28;20592;-58
2022/07/10 02:41:44;;;;;;;1.98;0.88;;;;;;;16.23;66.67;99371.06;4117833;28;20211;-58
2022/07/10 02:43:45;;;;;;;2.72;1.17;;;;;;;16.27;66.58;99371.34;4112522;28;20309;-58
2022/07/10 02:45:47;;;;;;;2.50;1.20;;;;;;;16.27;66.45;99369.44;4117250;28;20216;-58
2022/07/10 02:47:48;;;;;;;2.13;1.13;;;;;;;16.29;66.50;99370.00;4115475;28;20257;-58
2022/07/10 02:49:50;;;;;;;2.92;1.20;;;;;;;16.28;66.37;99368.34;4117179;28;20210;-59
2022/07/10 02:51:52;;;;;;;2.08;1.13;;;;;;;16.29;66.30;99375.53;4117614;28;20709;-59
2022/07/10 02:53:53;;;;;;;8.70;1.40;;;;;;;16.25;66.23;99370.81;4144395;28;20229;-58
2022/07/10 02:55:54;;;;;;;1.23;1.02;;;;;;;16.23;66.43;99371.06;4118633;28;20296;-59
2022/07/10 02:57:56;;;;;;;2.15;0.90;;;;;;;16.22;66.41;99366.63;4118349;28;20321;-58
2022/07/10 02:59:57;;;;;;;2.22;1.40;;;;;;;16.19;66.44;99369.94;4117643;28;20216;-59
2022/07/10 03:02:00;;;;;;;2.83;1.27;;;;;;;16.17;66.43;99366.59;4119013;28;20212;-58
2022/07/10 03:04:02;;;;;;;5.13;2.10;;;;;;;16.13;66.50;99372.91;4119081;28;20264;-58
2022/07/10 03:06:04;;;;;;;3.53;1.10;;;;;;;16.09;66.75;99367.09;4148411;28;20225;-58
2022/07/10 03:08:05;;;;;;;2.28;1.30;;;;;;;16.09;66.64;99363.50;4120022;28;20230;-58
2022/07/10 03:10:07;;;;;;;3.65;1.27;;;;;;;16.12;66.59;99374.00;4116276;28;20213;-57
2022/07/10 03:12:08;;;;;;;2.80;1.50;;;;;;;16.06;66.76;99370.38;4116528;28;20570;-58
2022/07/10 03:14:10;;;;;;;2.25;1.25;;;;;;;16.12;66.37;99361.06;4116333;28;20209;-58
2022/07/10 03:16:12;;;;;;;4.38;1.50;;;;;;;16.09;66.09;99372.59;4120114;28;20198;-58
2022/07/10 03:18:13;;;;;;;1.65;1.50;;;;;;;15.83;66.05;99370.75;4120313;28;20649;-58
2022/07/10 03:20:15;;;;;;;1.30;1.10;;;;;;;15.80;65.77;99375.94;4115457;28;20224;-58
2022/07/10 03:22:16;;;;;;;2.75;1.40;;;;;;;15.97;65.27;99377.47;4144240;28;20204;-58
2022/07/10 03:24:18;;;;;;;2.80;2.20;;;;;;;15.91;65.56;99386.81;4122307;28;20232;-58
2022/07/10 03:26:20;;;;;;;3.25;1.63;;;;;;;15.85;65.39;99381.53;4121450;28;20221;-58
2022/07/10 03:28:21;;;;;;;2.85;1.45;;;;;;;15.89;65.20;99391.78;4118594;28;20353;-57
2022/07/10 03:30:23;;;;;;;1.80;1.38;;;;;;;15.89;65.11;99389.00;4119372;28;20232;-58
2022/07/10 03:32:25;;;;;;;1.95;1.48;;;;;;;15.81;65.26;99381.22;4116524;28;20198;-58
2022/07/10 03:34:26;;;;;;;5.88;1.95;;;;;;;15.69;65.35;99391.59;4117024;28;20691;-57
2022/07/10 03:36:28;;;;;;;2.45;1.38;;;;;;;15.72;65.51;99380.03;4116718;28;20695;-58
2022/07/10 03:38:29;;;;;;;1.90;1.33;;;;;;;15.66;65.41;99386.59;4117324;28;20229;-58
2022/07/10 03:40:31;;;;;;;3.22;1.45;;;;;;;15.61;65.30;99385.69;4116601;28;20210;-57
2022/07/10 03:42:32;;;;;;;5.03;1.25;;;;;;;15.67;65.37;99388.25;4116373;28;20704;-58
2022/07/10 03:44:34;;;;;;;1.70;1.25;;;;;;;15.71;65.22;99394.09;4114878;28;20238;-57
2022/07/10 03:46:36;;;;;;;2.95;1.27;;;;;;;15.73;64.97;99392.75;4116099;28;20231;-58
2022/07/10 03:48:37;;;;;;;2.67;1.45;;;;;;;15.74;64.96;99388.88;4119024;28;20233;-59
2022/07/10 03:50:39;;;;;;;2.90;1.38;;;;;;;15.70;64.86;99382.22;4117436;28;20205;-58
2022/07/10 03:52:41;;;;;;;1.85;1.23;;;;;;;15.70;64.69;99387.72;4118381;28;20302;-57
2022/07/10 03:54:42;;;;;;;1.67;1.20;;;;;;;15.66;64.62;99386.59;4118276;28;20245;-58
2022/07/10 03:59:03;;;;;;;1.08;0.93;;;;;;;15.65;64.47;99395.97;4117098;28;20585;-57
2022/07/10 04:01:05;;;;;;;3.85;1.35;;;;;;;15.64;64.45;99397.06;4116009;28;20206;-58
2022/07/10 04:03:07;;;;;;;3.50;1.08;;;;;;;15.65;64.23;99395.97;4116242;28;20571;-58
2022/07/10 04:05:09;;;;;;;2.78;1.00;;;;;;;15.62;64.37;99401.19;4117457;28;20202;-58
2022/07/10 04:07:12;;;;;;;1.58;1.15;;;;;;;15.63;64.14;99398.16;4116576;28;20302;-57
2022/07/10 04:09:13;;;;;;;3.40;1.67;;;;;;;15.58;64.39;99403.63;4116241;28;20217;-58
2022/07/10 04:11:15;;;;;;;2.90;1.27;;;;;;;15.58;64.45;99406.41;4117757;28;20211;-57
2022/07/10 04:13:17;;;;;;;2.45;1.52;;;;;;;15.56;64.46;99408.56;4119472;28;20321;-57
2022/07/10 04:15:19;;;;;;;1.92;1.00;;;;;;;15.58;64.33;99400.03;4115070;28;20296;-57
2022/07/10 04:17:21;;;;;;;3.17;0.95;;;;;;;15.59;64.30;99391.50;4116738;28;20667;-57
2022/07/10 04:19:22;;;;;;;3.38;1.80;;;;;;;15.53;64.06;99392.53;4116216;28;20210;-57
2022/07/10 04:21:24;;;;;;;1.23;1.08;;;;;;;15.53;64.49;99387.03;4116752;28;20214;-57
2022/07/10 04:23:25;;;;;;;1.63;1.10;;;;;;;15.38;64.79;99389.63;4115346;28;20220;-57
2022/07/10 04:25:27;;;;;;;2.58;1.00;;;;;;;15.45;64.60;99393.03;4115666;28;20216;-56
2022/07/10 04:27:28;;;;;;;1.92;1.23;;;;;;;15.45;64.51;99405.97;4151520;28;20240;-57
2022/07/10 04:29:31;;;;;;;3.38;1.58;;;;;;;15.42;64.56;99407.31;4114528;28;20244;-57
2022/07/10 04:31:32;;;;;;;3.10;1.30;;;;;;;15.39;64.64;99401.47;4146552;28;20210;-57
2022/07/10 04:33:34;;;;;;;2.67;1.38;;;;;;;15.22;64.95;99403.47;4116448;28;20215;-59
2022/07/10 04:35:35;;;;;;;1.23;1.13;;;;;;;15.33;64.78;99402.50;4115570;28;20299;-60
2022/07/10 04:37:37;;;;;;;3.00;1.20;;;;;;;15.23;64.85;99405.97;4115556;28;20312;-58
2022/07/10 04:39:39;;;;;;;2.65;1.27;;;;;;;15.28;64.89;99410.69;4117808;28;20688;-58
2022/07/10 04:41:41;;;;;;;4.88;1.27;;;;;;;15.32;64.68;99407.22;4122847;28;20288;-58
2022/07/10 04:43:42;;;;;;;1.40;0.80;;;;;;;15.29;65.01;99404.94;4147526;28;20757;-58
2022/07/10 04:45:45;;;;;;;2.42;1.10;;;;;;;15.32;64.68;99412.72;4115651;28;20211;-58
2022/07/10 04:47:46;;;;;;;3.08;1.20;;;;;;;15.27;65.13;99409.88;4119189;28;20306;-57
2022/07/10 04:49:48;;;;;;;4.47;1.08;;;;;;;15.19;65.14;99407.59;4115472;28;20631;-58
2022/07/10 04:51:49;;;;;;;3.78;1.30;;;;;;;15.11;65.46;99410.78;4115845;28;20767;-58
2022/07/10 04:53:51;;;;;;;2.40;1.30;;;;;;;15.12;65.47;99417.13;4145431;28;20215;-58
2022/07/10 04:55:52;;;;;;;2.75;1.00;;;;;;;15.19;65.80;99415.84;4146473;28;20290;-57
2022/07/10 04:57:54;;;;;;;6.57;1.52;;;;;;;15.19;65.58;99407.59;4115892;28;20316;-58
2022/07/10 04:59:56;;;;;;;2.65;1.50;;;;;;;14.96;66.06;99415.28;4116119;28;20806;-58
2022/07/10 05:01:58;;;;;;;2.55;1.52;;;;;;;15.04;65.82;99415.66;4114933;28;20293;-58
2022/07/10 05:04:00;;;;;;;1.63;1.35;;;;;;;15.09;66.21;99415.72;4116265;28;20206;-58
2022/07/10 05:06:01;;;;;;;4.22;1.80;;;;;;;15.30;65.76;99414.03;4117590;28;20201;-58
2022/07/10 05:08:03;;;;;;;3.00;1.30;;;;;;;15.33;65.78;99424.59;4113324;28;20308;-58
2022/07/10 05:10:05;;;;;;;2.45;1.45;;;;;;;15.33;65.69;99424.59;4114728;28;20298;-57
2022/07/10 05:12:07;;;;;;;2.10;1.05;;;;;;;15.44;65.47;99427.19;4146771;28;20204;-58
2022/07/10 05:14:09;;;;;;;3.25;1.15;;;;;;;15.47;65.19;99432.22;4114417;28;20210;-58
2022/07/10 05:16:10;;;;;;;3.65;1.65;;;;;;;15.50;65.22;99425.34;4119497;28;20931;-58
2022/07/10 05:18:19;;;;;;;3.25;0.90;;;;;;;15.57;64.67;99432.31;4116598;28;20229;-58
2022/07/10 05:20:21;;;;;;;3.85;1.20;;;;;;;15.59;64.75;99430.13;4117289;28;20215;-58
2022/07/10 05:22:24;;;;;;;2.60;1.00;;;;;;;15.67;64.62;99431.56;4120739;28;20238;-58
2022/07/10 05:24:25;;;;;;;7.82;1.30;;;;;;;15.62;64.32;99435.13;4124293;28;20656;-58
2022/07/10 05:26:27;;;;;;;5.07;1.90;;;;;;;15.53;64.32;99444.97;4118688;28;20758;-59
2022/07/10 05:28:28;;;;;;;4.65;1.10;;;;;;;15.42;64.55;99439.59;4119067;28;21950;-58
2022/07/10 05:30:30;;;;;;;4.05;1.00;;;;;;;15.46;64.33;99441.56;4117533;28;20253;-58
2022/07/10 05:32:32;;;;;;;10.65;1.00;;;;;;;15.61;64.02;99433.47;4146451;28;20208;-58
2022/07/10 05:34:34;;;;;;;3.40;0.90;;;;;;;15.76;63.80;99435.56;4115728;28;20294;-58
2022/07/10 05:36:36;;;;;;;2.63;1.10;;;;;;;15.83;63.39;99436.97;4119539;28;20237;-58
2022/07/10 05:38:37;;;;;;;3.30;1.55;;;;;;;15.86;63.64;99436.47;4116706;28;20313;-58
2022/07/10 05:40:40;;;;;;;0.98;0.90;;;;;;;15.98;63.65;99434.38;4118418;28;20199;-58
2022/07/10 05:42:41;;;;;;;2.42;0.90;;;;;;;15.50;63.96;99442.72;4115189;28;20290;-58
2022/07/10 05:44:43;;;;;;;2.95;1.05;;;;;;;15.69;63.93;99446.78;4116976;28;20298;-58
2022/07/10 05:46:45;;;;;;;2.15;0.75;;;;;;;15.98;63.65;99442.69;4114443;28;20313;-58
2022/07/10 05:48:46;;;;;;;1.80;0.80;;;;;;;16.09;63.28;99441.66;4117701;28;20219;-59
2022/07/10 05:50:48;;;;;;;5.10;1.38;;;;;;;16.26;63.48;99447.88;4117012;28;20301;-58
2022/07/10 05:52:49;;;;;;;3.97;1.10;;;;;;;16.39;62.58;99450.22;4117196;28;20292;-58
2022/07/10 05:54:51;;;;;;;9.13;2.55;;;;;;;16.54;62.66;99457.78;4117004;28;20202;-57
2022/07/10 05:56:53;;;;;;;3.38;0.90;;;;;;;16.59;62.07;99452.31;4120149;28;20250;-58
2022/07/10 05:58:57;;;;;;;7.30;1.77;;;;;;;16.55;61.43;99446.47;4122817;28;20204;-58
2022/07/10 06:00:58;;;;;;;2.42;1.20;;;;;;;16.73;61.90;99447.97;4117544;28;20206;-57
2022/07/10 06:03:00;;;;;;;4.57;0.85;;;;;;;16.92;61.93;99447.28;4119456;28;20711;-58
2022/07/10 06:05:02;;;;;;;9.40;1.33;;;;;;;16.74;61.04;99450.47;4118051;28;20241;-58
2022/07/10 06:07:03;;;;;;;2.88;1.17;;;;;;;16.66;61.69;99442.69;4117455;28;20214;-57
2022/07/10 06:09:05;;;;;;;9.60;1.80;;;;;;;16.40;61.55;99443.59;4118143;28;20198;-57
2022/07/10 06:11:06;;;;;;;2.08;0.85;;;;;;;16.61;62.13;99450.94;4113410;28;20341;-57
2022/07/10 06:13:08;;;;;;;3.30;1.45;;;;;;;16.77;61.10;99455.44;4118775;28;20754;-57
2022/07/10 06:15:11;;;;;;;2.58;0.98;;;;;;;16.77;61.67;99454.63;4114663;28;20302;-57
2022/07/10 06:17:19;;;;;;;1.75;0.95;;;;;;;16.81;61.45;99456.59;4117953;28;20280;-58
2022/07/10 06:19:20;;;;;;;1.85;0.80;;;;;;;16.87;60.47;99455.53;4116870;28;20230;-57
2022/07/10 06:21:22;;;;;;;3.05;0.70;;;;;;;16.59;60.25;99466.13;4113665;28;20237;-61
2022/07/10 06:23:24;;;;;;;2.75;0.95;;;;;;;16.69;59.70;99464.25;4147184;28;20209;-57
2022/07/10 06:25:26;;;;;;;2.25;0.80;;;;;;;16.61;59.52;99467.53;4120904;28;20237;-57
2022/07/10 06:27:27;;;;;;;2.25;0.80;;;;;;;16.69;60.28;99468.97;4118057;28;20360;-58
2022/07/10 06:29:29;;;;;;;2.53;1.00;;;;;;;16.58;58.91;99468.06;4121529;28;20297;-57
2022/07/10 06:31:30;;;;;;;3.60;1.05;;;;;;;16.99;59.62;99462.50;4120610;28;20300;-59
2022/07/10 06:33:35;;;;;;;2.80;0.95;;;;;;;17.06;58.85;99459.50;4122676;28;20237;-56
2022/07/10 06:35:36;;;;;;;2.55;0.70;;;;;;;17.41;59.01;99468.00;4123432;28;20216;-59
2022/07/10 06:37:38;;;;;;;1.25;0.82;;;;;;;17.60;58.01;99467.22;4119026;28;20774;-55
2022/07/10 06:39:39;;;;;;;2.25;0.70;;;;;;;17.02;56.97;99463.91;4121682;28;20238;-56
2022/07/10 06:41:41;;;;;;;2.22;0.88;;;;;;;17.59;57.48;99465.56;4123646;28;20775;-57
2022/07/10 06:43:42;;;;;;;2.50;1.20;;;;;;;17.47;55.91;99461.38;4120372;28;20205;-59
2022/07/10 06:45:44;;;;;;;1.55;0.70;;;;;;;17.63;56.97;99465.84;4120280;28;20220;-58
2022/07/10 06:47:59;;;;;;;1.75;0.98;;;;;;;17.49;54.94;99467.47;4119998;28;20304;-57
2022/07/10 06:50:02;;;;;;;1.58;0.70;;;;;;;16.99;54.77;99464.44;4120340;28;20206;-58
2022/07/10 06:52:04;;;;;;;5.93;0.88;;;;;;;16.47;56.61;99466.31;4150168;28;20243;-56
2022/07/10 06:54:12;;;;;;;1.92;0.75;;;;;;;16.05;57.65;99468.16;4121049;28;20304;-58
2022/07/10 06:56:16;;;;;;;2.40;0.90;;;;;;;16.19;58.82;99468.53;4151531;28;20235;-58
2022/07/10 06:58:18;;;;;;;0.90;0.60;;;;;;;16.35;58.54;99467.56;4135304;28;20260;-58
2022/07/10 07:00:20;;;;;;;1.70;0.80;;;;;;;16.53;57.15;99470.78;4153644;28;20653;-57
2022/07/10 07:02:22;;;;;;;2.08;0.80;;;;;;;16.34;56.66;99469.50;4125041;28;20210;-57
2022/07/10 07:04:24;;;;;;;3.65;1.58;;;;;;;16.43;57.12;99473.47;4121135;28;20250;-58
2022/07/10 07:06:25;;;;;;;2.03;0.60;;;;;;;16.57;56.96;99474.66;4123469;28;20210;-58
2022/07/10 07:08:30;;;;;;;1.98;0.60;;;;;;;16.69;55.86;99453.19;4127078;28;20294;-57
2022/07/10 07:10:32;;;;;;;2.08;0.60;;;;;;;16.85;56.46;99468.81;4120847;28;20209;-58
2022/07/10 07:12:34;;;;;;;0.70;0.63;;;;;;;16.93;56.08;99465.53;4118931;28;20284;-59
2022/07/10 07:14:35;;;;;;;1.92;0.70;;;;;;;16.95;56.07;99463.31;4120576;28;20263;-58
2022/07/10 07:16:46;;;;;;;3.28;0.93;;;;;;;17.02;55.93;99463.91;4123989;28;20210;-58
2022/07/10 07:18:52;;;;;;;4.20;0.60;;;;;;;17.00;55.38;99468.88;4119608;28;20724;-58
2022/07/10 07:23:13;;;;;;;7.00;0.82;;;;;;;17.18;55.41;99460.13;4144030;28;20304;-59
2022/07/10 07:25:15;;;;;;;2.25;0.68;;;;;;;17.80;54.96;99466.47;4118007;28;20953;-58
2022/07/10 07:27:17;;;;;;;1.30;0.68;;;;;;;18.19;53.83;99460.13;4121914;28;20247;-59
2022/07/10 07:29:18;;;;;;;2.50;0.80;;;;;;;18.46;52.64;99454.38;4122655;28;20257;-57
2022/07/10 07:31:20;;;;;;;3.78;0.70;;;;;;;18.62;51.28;99465.16;4121524;28;20262;-58
2022/07/10 07:33:22;;;;;;;2.70;0.50;;;;;;;19.00;51.09;99458.16;4124575;28;20786;-58
2022/07/10 07:35:23;;;;;;;3.47;0.75;;;;;;;18.72;50.61;99464.31;4124000;28;20233;-58
2022/07/10 07:37:48;;;;;;;1.23;0.70;;;;;;;19.15;49.77;99464.50;4121433;28;20250;-58
2022/07/10 07:39:50;;;;;;;6.03;0.90;;;;;;;19.17;50.42;99464.22;4147620;28;20223;-58
2022/07/10 07:41:52;;;;;;;2.33;0.73;;;;;;;18.92;50.06;99461.53;4123594;28;20707;-59
2022/07/10 07:43:53;;;;;;;1.98;0.70;;;;;;;19.25;50.75;99460.91;4123712;28;20237;-59
2022/07/10 07:45:56;;;;;;;1.75;1.02;;;;;;;19.57;50.05;99455.78;4117206;28;20233;-59
2022/07/10 07:47:59;;;;;;;2.28;0.68;;;;;;;19.40;50.59;99460.84;4118788;28;20237;-60
2022/07/10 07:50:04;;;;;;;1.33;0.57;;;;;;;19.43;48.72;99461.09;4122728;28;20207;-59
2022/07/10 07:52:06;;;;;;;0.80;0.50;;;;;;;19.22;48.93;99455.91;4121399;28;20631;-60
2022/07/10 07:54:07;;;;;;;3.33;0.57;;;;;;;19.01;50.34;99463.44;4120734;28;20257;-57
2022/07/10 07:56:09;;;;;;;1.00;0.68;;;;;;;18.75;50.00;99474.84;4122418;28;20668;-57
2022/07/10 07:58:11;;;;;;;2.40;0.70;;;;;;;18.61;51.14;99468.22;4120733;28;20317;-57
2022/07/10 08:00:14;;;;;;;3.30;0.57;;;;;;;18.45;51.15;99474.88;4151691;28;20778;-58
2022/07/10 08:02:15;;;;;;;1.63;0.50;;;;;;;18.34;51.88;99475.97;4118425;28;20206;-57
2022/07/10 08:04:17;;;;;;;2.35;0.50;;;;;;;18.27;51.44;99480.94;4120562;28;20234;-58
2022/07/10 08:06:19;;;;;;;1.45;0.50;;;;;;;18.00;50.81;99483.13;4151091;28;20209;-57
2022/07/10 08:08:20;;;;;;;1.40;0.57;;;;;;;18.23;52.11;99485.34;4121913;28;20603;-57
2022/07/10 08:10:24;;;;;;;1.40;0.82;;;;;;;18.44;51.66;99482.34;4152120;28;20213;-59
2022/07/10 08:12:25;;;;;;;2.80;0.60;;;;;;;18.44;52.29;99478.78;4149492;28;20201;-58
2022/07/10 08:14:27;;;;;;;1.23;0.70;;;;;;;18.58;51.81;99477.09;4119551;28;20214;-59
2022/07/10 08:16:28;;;;;;;2.67;0.77;;;;;;;18.40;52.71;99483.19;4116691;28;20202;-57
2022/07/10 08:18:30;;;;;;;2.17;1.15;;;;;;;18.44;51.23;99482.34;4118895;28;20231;-59
2022/07/10 08:20:32;;;;;;;2.58;0.70;;;;;;;18.45;51.02;99477.66;4116584;28;20276;-58
2022/07/10 08:22:34;;;;;;;1.77;0.68;;;;;;;18.51;51.64;99468.22;4150624;28;20215;-59
2022/07/10 08:24:35;;;;;;;2.33;0.50;;;;;;;18.66;51.22;99471.81;4118600;28;20202;-58
2022/07/10 08:26:37;;;;;;;2.33;0.75;;;;;;;18.79;51.11;99453.78;4148258;28;20659;-59
2022/07/10 08:28:39;;;;;;;2.92;0.70;;;;;;;18.76;50.74;99470.97;4126668;28;20341;-59
2022/07/10 08:30:42;;;;;;;2.10;0.60;;;;;;;19.03;51.20;99460.34;4120824;28;20210;-59
2022/07/10 08:32:44;;;;;;;3.30;0.63;;;;;;;19.16;50.56;99463.38;4113923;28;20676;-58
2022/07/10 08:34:46;;;;;;;1.42;0.55;;;;;;;19.03;50.70;99466.75;4121910;28;20241;-58
2022/07/10 08:36:47;;;;;;;0.68;0.40;;;;;;;18.73;49.73;99471.53;4122472;28;20198;-58
2022/07/10 08:38:56;;;;;;;7.75;0.95;;;;;;;18.82;50.93;99464.28;4150911;28;20196;-59
2022/07/10 08:40:58;;;;;;;1.90;0.80;;;;;;;19.04;50.50;99459.28;4120565;28;20277;-58
2022/07/10 08:43:00;;;;;;;3.10;0.75;;;;;;;19.37;51.02;99456.66;4139143;28;20741;-59
2022/07/10 08:45:01;;;;;;;2.25;0.75;;;;;;;19.59;48.37;99459.09;4121641;28;20268;-59
2022/07/10 08:47:04;;;;;;;1.30;1.10;;;;;;;19.66;48.73;99454.84;4121595;28;20252;-58
2022/07/10 08:49:15;;;;;;;4.50;1.13;;;;;;;19.54;47.17;99451.63;4118927;28;20703;-59
2022/07/10 08:51:54;;;;;;;1.00;0.45;;;;;;;20.23;47.54;99443.13;4119650;28;20203;-59
2022/07/10 08:53:57;;;;;;;1.15;0.50;;;;;;;20.18;45.59;99446.78;4103008;28;20209;-60
2022/07/10 08:55:59;;;;;;;3.08;0.80;;;;;;;20.41;46.63;99442.44;4117177;28;20482;-59
2022/07/10 08:58:00;;;;;;;1.42;1.23;;;;;;;20.75;45.80;99446.00;4117285;28;20233;-59
2022/07/10 09:00:02;;;;;;;1.52;0.70;;;;;;;20.47;44.75;99449.59;4116641;28;20260;-61
2022/07/10 09:02:04;;;;;;;3.08;0.63;;;;;;;20.69;44.79;99441.59;4116682;28;20273;-59
2022/07/10 09:04:05;;;;;;;3.22;0.63;;;;;;;20.30;43.69;99444.47;4118163;28;20230;-59
2022/07/10 09:06:07;;;;;;;2.70;0.80;;;;;;;20.16;44.79;99432.34;4117565;28;20293;-59
2022/07/10 09:08:31;;;;;;;3.75;0.93;;;;;;;20.96;45.90;99439.13;4116304;28;20229;-58
2022/07/10 09:10:33;;;;;;;3.05;0.82;;;;;;;20.64;45.63;99430.56;4114813;28;20213;-59
2022/07/10 09:12:52;;;;;;;1.30;0.60;;;;;;;20.53;46.50;99435.38;4116357;28;20329;-59
2022/07/10 09:15:14;;;;;;;1.23;0.70;;;;;;;21.01;46.71;99436.28;4116470;28;20221;-60
2022/07/10 09:17:19;;;;;;;3.10;0.65;;;;;;;21.27;45.81;99432.09;4114179;28;20668;-63
2022/07/10 09:19:26;;;;;;;2.60;0.80;;;;;;;21.65;45.28;99433.84;4112281;28;20726;-64
2022/07/10 09:21:34;;;;;;;1.77;0.70;;;;;;;22.15;45.73;99444.25;4117072;28;20922;-63
2022/07/10 09:23:36;;;;;;;3.78;0.80;;;;;;;22.18;44.10;99438.91;4114748;28;20197;-63
2022/07/10 09:25:37;;;;;;;3.08;0.80;;;;;;;22.32;44.50;99438.97;4118153;28;20579;-63
2022/07/10 09:27:56;;;;;;;1.45;0.63;;;;;;;22.53;43.86;99435.59;4120969;28;20656;-62
2022/07/10 09:29:59;;;;;;;3.85;0.52;;;;;;;22.87;43.17;99435.25;4125029;28;22245;-63
2022/07/10 09:32:02;;;;;;;3.35;1.30;;;;;;;22.58;42.44;99432.69;4115918;28;20214;-63
2022/07/10 09:34:04;;;;;;;1.02;0.57;;;;;;;22.74;41.39;99433.25;4149374;28;20233;-63
2022/07/10 09:36:10;;;;;;;1.98;0.68;;;;;;;22.05;41.58;99427.69;4117976;28;20233;-64
2022/07/10 09:38:12;;;;;;;1.33;0.60;;;;;;;22.43;43.34;99440.50;4114122;28;20594;-63
2022/07/10 09:40:14;;;;;;;3.63;0.60;;;;;;;22.71;42.13;99431.91;4119880;28;20269;-63
2022/07/10 09:42:39;;;;;;;1.17;0.63;;;;;;;23.05;42.05;99425.97;4117166;28;20264;-62
2022/07/10 09:44:41;;;;;;;1.08;0.63;;;;;;;23.15;42.02;99425.75;4118225;28;20355;-62
2022/07/10 09:46:43;;;;;;;3.30;0.68;;;;;;;23.08;41.67;99425.34;4117226;28;20208;-62
2022/07/10 09:48:45;;;;;;;2.00;0.60;;;;;;;23.13;42.34;99423.28;4119019;28;20332;-62